Time;durP1;ratioP1;P1;durP2;ratioP2;P2;SDS_P1;SDS_P2;PMS_P1;PMS_P2;Temp;Humidity;BMP_temperature;BMP_pressure;BME280_temperature;BME280_humidity;BME280_pressure;Samples;Min_cycle;Max_cycle;Signal;HPM_P1;HPM_P2
2022/02/11 00:02:14;;;;;;;0.30;0.30;;;6.60;99.90;;;;;;5115464;28;20463;-80
2022/02/11 00:07:26;;;;;;;0.60;0.43;;;6.60;99.90;;;;;;5115053;28;20439;-79
2022/02/11 00:09:53;;;;;;;0.30;0.30;;;6.60;99.90;;;;;;5115227;28;20449;-79
2022/02/11 00:12:20;;;;;;;0.40;0.40;;;6.60;99.90;;;;;;5115052;28;20791;-80
2022/02/11 00:14:54;;;;;;;2.00;0.50;;;6.60;99.90;;;;;;5115158;28;20447;-80
2022/02/11 00:17:21;;;;;;;1.13;0.40;;;6.60;99.90;;;;;;5114146;28;20561;-79
2022/02/11 00:19:49;;;;;;;0.40;0.30;;;6.70;99.90;;;;;;5114826;28;20446;-80
2022/02/11 00:22:16;;;;;;;0.30;0.30;;;6.70;99.90;;;;;;5114924;28;20454;-79
2022/02/11 00:24:43;;;;;;;1.63;0.97;;;6.60;99.90;;;;;;5114638;28;20957;-80
2022/02/11 00:27:45;;;;;;;1.13;0.40;;;6.60;99.90;;;;;;5114268;28;20495;-80
2022/02/11 00:32:59;;;;;;;0.70;0.70;;;6.40;99.90;;;;;;5111851;28;20423;-80
2022/02/11 00:35:32;;;;;;;0.33;0.33;;;6.40;99.90;;;;;;5114814;28;20514;-80
2022/02/11 00:38:05;;;;;;;1.50;0.43;;;6.40;99.90;;;;;;5114622;28;20463;-80
2022/02/11 00:40:55;;;;;;;0.40;0.40;;;6.30;99.90;;;;;;5114681;28;20431;-80
2022/02/11 00:46:15;;;;;;;0.60;0.60;;;6.30;99.90;;;;;;5114004;28;20467;-80
2022/02/11 01:02:27;;;;;;;0.30;0.30;;;6.20;99.90;;;;;;5114449;28;20444;-80
2022/02/11 01:04:53;;;;;;;0.50;0.50;;;6.20;99.90;;;;;;5114239;28;20905;-80
2022/02/11 01:07:22;;;;;;;0.30;0.30;;;6.20;99.90;;;;;;5113742;28;20490;-80
2022/02/11 01:09:49;;;;;;;0.87;0.40;;;6.10;99.90;;;;;;5114160;28;20447;-80
2022/02/11 01:12:15;;;;;;;0.30;0.30;;;6.10;99.90;;;;;;5114046;28;20462;-80
2022/02/11 01:14:49;;;;;;;0.30;0.30;;;6.10;99.90;;;;;;5114070;28;20447;-80
2022/02/11 01:17:22;;;;;;;0.30;0.30;;;6.10;99.90;;;;;;5114039;28;20503;-80
2022/02/11 01:20:01;;;;;;;0.30;0.27;;;6.10;99.90;;;;;;5114033;28;20555;-80
2022/02/11 01:22:46;;;;;;;0.40;0.40;;;6.10;99.90;;;;;;5114020;28;20500;-80
2022/02/11 01:25:44;;;;;;;0.50;0.50;;;6.10;99.90;;;;;;5114043;28;20431;-80
2022/02/11 01:28:17;;;;;;;0.30;0.30;;;6.20;99.90;;;;;;5113404;28;20489;-80
2022/02/11 01:31:00;;;;;;;0.30;0.30;;;6.10;99.90;;;;;;5113781;28;20427;-80
2022/02/11 01:33:46;;;;;;;0.40;0.40;;;6.10;99.90;;;;;;5113939;28;20792;-80
2022/02/11 01:36:28;;;;;;;0.30;0.30;;;6.20;99.90;;;;;;5113789;28;20557;-80
2022/02/11 01:39:24;;;;;;;0.30;0.30;;;6.10;99.90;;;;;;5113836;28;20435;-80
2022/02/11 01:50:30;;;;;;;0.93;0.93;;;6.10;99.90;;;;;;5087787;28;20483;-80
2022/02/11 01:53:06;;;;;;;0.30;0.30;;;6.00;99.90;;;;;;5113698;28;20423;-80
2022/02/11 01:55:59;;;;;;;0.30;0.30;;;6.00;99.90;;;;;;5113413;28;20910;-80
2022/02/11 02:01:32;;;;;;;0.40;0.40;;;6.00;99.90;;;;;;5111164;28;20434;-80
2022/02/11 02:27:16;;;;;;;0.30;0.30;;;5.80;99.90;;;;;;5085423;28;20467;-80
2022/02/11 02:33:11;;;;;;;0.30;0.30;;;5.80;99.90;;;;;;5090582;28;20468;-80
2022/02/11 02:35:49;;;;;;;0.30;0.30;;;5.80;99.90;;;;;;5090326;28;20991;-80
2022/02/11 02:57:44;;;;;;;0.30;0.30;;;5.80;99.90;;;;;;5090134;28;20513;-80
2022/02/11 03:50:02;;;;;;;0.30;0.30;;;4.90;99.90;;;;;;5075724;28;20451;-79
2022/02/11 03:53:01;;;;;;;0.30;0.30;;;4.90;99.90;;;;;;5075763;28;20504;-79
2022/02/11 03:56:01;;;;;;;0.30;0.20;;;4.80;99.90;;;;;;5075368;28;20524;-79
2022/02/11 03:59:06;;;;;;;0.30;0.20;;;4.80;99.90;;;;;;5075291;28;20472;-79
2022/02/11 04:56:20;;;;;;;0.30;0.30;;;2.70;99.90;;;;;;5053161;28;20970;-79
2022/02/11 05:01:31;;;;;;;0.30;0.30;;;2.70;99.90;;;;;;5074560;28;20504;-79
2022/02/11 05:03:58;;;;;;;0.30;0.20;;;2.70;99.90;;;;;;5074120;28;20932;-79
2022/02/11 05:06:25;;;;;;;0.60;0.30;;;2.60;99.90;;;;;;5074320;28;20465;-79
2022/02/11 05:08:51;;;;;;;0.30;0.30;;;2.60;99.90;;;;;;5074342;28;20460;-79
2022/02/11 05:11:19;;;;;;;0.30;0.30;;;2.60;99.90;;;;;;5074281;28;20444;-79
2022/02/11 05:13:46;;;;;;;0.30;0.20;;;2.60;99.90;;;;;;5074394;28;20825;-78
2022/02/11 05:16:13;;;;;;;0.30;0.20;;;2.60;99.90;;;;;;5073791;28;20918;-78
2022/02/11 05:18:39;;;;;;;0.30;0.30;;;2.50;99.90;;;;;;5073834;28;20452;-78
2022/02/11 05:21:06;;;;;;;0.30;0.20;;;2.60;99.90;;;;;;5074166;28;20441;-78
2022/02/11 05:23:33;;;;;;;0.30;0.30;;;2.60;99.90;;;;;;5073607;28;20825;-78
2022/02/11 05:26:00;;;;;;;0.30;0.20;;;2.60;99.90;;;;;;5073989;28;20448;-79
2022/02/11 05:28:28;;;;;;;0.30;0.30;;;2.60;99.90;;;;;;5073683;28;20966;-78
2022/02/11 05:30:54;;;;;;;0.30;0.20;;;2.60;99.90;;;;;;5073946;28;20885;-79
2022/02/11 05:33:22;;;;;;;0.30;0.30;;;2.50;99.90;;;;;;5073866;28;20473;-78
2022/02/11 05:35:49;;;;;;;0.30;0.20;;;2.60;99.90;;;;;;5073834;28;20460;-78
2022/02/11 05:38:16;;;;;;;0.30;0.30;;;2.60;99.90;;;;;;5073832;28;20451;-78
2022/02/11 05:40:44;;;;;;;0.30;0.30;;;2.60;99.90;;;;;;5074594;28;20459;-79
2022/02/11 05:43:11;;;;;;;0.30;0.30;;;2.60;99.90;;;;;;5073794;28;20444;-79
2022/02/11 05:45:39;;;;;;;0.30;0.20;;;2.60;99.90;;;;;;5073678;28;20449;-79
2022/02/11 05:49:06;;;;;;;0.30;0.20;;;2.60;99.90;;;;;;5061993;22;20490;-79
2022/02/11 05:51:58;;;;;;;0.30;0.30;;;2.70;99.90;;;;;;5053094;28;20452;-79
2022/02/11 05:57:35;;;;;;;0.30;0.20;;;2.70;99.90;;;;;;5043173;22;20489;-79
2022/02/11 06:00:03;;;;;;;0.30;0.20;;;2.60;99.90;;;;;;5073557;28;20433;-79
2022/02/11 06:02:31;;;;;;;0.30;0.30;;;2.60;99.90;;;;;;5093352;28;20439;-79
2022/02/11 06:04:58;;;;;;;0.30;0.30;;;2.70;99.90;;;;;;5093681;28;20494;-79
2022/02/11 06:07:25;;;;;;;0.30;0.30;;;2.70;99.90;;;;;;5093475;28;20455;-79
2022/02/11 06:09:52;;;;;;;0.30;0.20;;;2.70;99.90;;;;;;5093563;28;20471;-79
2022/02/11 06:12:18;;;;;;;0.30;0.30;;;2.70;99.90;;;;;;5093430;28;20455;-79
2022/02/11 06:14:46;;;;;;;0.30;0.30;;;2.70;99.90;;;;;;5093512;28;20443;-79
2022/02/11 06:24:12;;;;;;;0.30;0.30;;;2.70;99.90;;;;;;5080276;28;20470;-79
2022/02/11 06:30:50;;;;;;;0.30;0.20;;;2.70;99.90;;;;;;5019194;28;20432;-79
2022/02/11 06:34:09;;;;;;;0.50;0.50;;;2.60;99.90;;;;;;5087317;28;20859;-78
2022/02/11 06:40:41;;;;;;;0.30;0.30;;;2.40;99.90;;;;;;5092851;28;20501;-78
2022/02/11 06:43:52;;;;;;;0.30;0.30;;;2.30;99.90;;;;;;4987167;28;20471;-78
2022/02/11 06:47:22;;;;;;;;;;;;;;;;;;;;;
2022/02/11 06:57:42;;;;;;;0.57;0.40;;;2.00;99.90;;;;;;5081916;28;20455;-78
2022/02/11 07:08:13;;;;;;;0.30;0.30;;;1.80;99.90;;;;;;5039687;22;21101;-78
2022/02/11 07:15:42;;;;;;;0.30;0.30;;;1.70;99.90;;;;;;5050434;28;20493;-78
2022/02/11 07:18:09;;;;;;;0.30;0.30;;;1.70;99.90;;;;;;5021073;28;20485;-79
2022/02/11 07:20:36;;;;;;;0.30;0.30;;;1.70;99.90;;;;;;5036182;28;20925;-79
2022/02/11 07:23:03;;;;;;;0.30;0.30;;;1.70;99.90;;;;;;5036485;28;20427;-79
2022/02/11 07:25:32;;;;;;;0.30;0.30;;;1.70;99.90;;;;;;5036422;28;20416;-79
2022/02/11 07:28:00;;;;;;;0.30;0.20;;;1.70;99.90;;;;;;5035965;28;20516;-78
2022/02/11 07:30:27;;;;;;;0.30;0.30;;;1.60;99.90;;;;;;5036071;28;20902;-78
2022/02/11 07:32:54;;;;;;;0.30;0.30;;;1.60;99.90;;;;;;5036249;28;20442;-79
2022/02/11 07:35:21;;;;;;;0.30;0.30;;;1.60;99.90;;;;;;5036224;28;20431;-79
2022/02/11 07:37:48;;;;;;;0.30;0.20;;;1.60;99.90;;;;;;5036088;28;20467;-79
2022/02/11 07:40:15;;;;;;;0.30;0.30;;;1.60;99.90;;;;;;5036143;28;20435;-79
2022/02/11 07:42:44;;;;;;;0.30;0.30;;;1.70;99.90;;;;;;5036083;28;20431;-78
2022/02/11 07:45:13;;;;;;;0.30;0.30;;;1.70;99.90;;;;;;5036023;28;20485;-79
2022/02/11 07:47:40;;;;;;;0.30;0.30;;;1.80;99.90;;;;;;5035597;28;20969;-79
2022/02/11 07:50:08;;;;;;;0.30;0.30;;;1.80;99.90;;;;;;5035882;28;20431;-79
2022/02/11 07:52:35;;;;;;;0.30;0.20;;;1.90;99.90;;;;;;5035829;28;20431;-78
2022/02/11 07:55:03;;;;;;;0.30;0.30;;;1.90;99.90;;;;;;5035764;28;20478;-78
2022/02/11 07:57:29;;;;;;;0.30;0.30;;;2.00;99.90;;;;;;5035484;28;20477;-78
2022/02/11 07:59:56;;;;;;;0.30;0.20;;;2.00;99.90;;;;;;5035803;28;20423;-78
2022/02/11 08:02:24;;;;;;;0.30;0.30;;;2.10;99.90;;;;;;5035409;28;20439;-78
2022/02/11 08:04:51;;;;;;;0.30;0.20;;;2.10;99.90;;;;;;5035702;28;20829;-78
2022/02/11 08:07:18;;;;;;;1.63;0.40;;;2.20;99.90;;;;;;5035576;28;20471;-78
2022/02/11 08:09:44;;;;;;;0.30;0.30;;;2.20;99.90;;;;;;5047944;28;20482;-78
2022/02/11 08:12:12;;;;;;;0.30;0.30;;;2.20;99.90;;;;;;5055504;28;20516;-78
2022/02/11 08:14:38;;;;;;;0.30;0.30;;;2.30;99.90;;;;;;5055027;28;20466;-78
2022/02/11 08:17:05;;;;;;;0.30;0.20;;;2.30;99.90;;;;;;5055320;28;20476;-78
2022/02/11 08:19:33;;;;;;;0.30;0.30;;;2.30;99.90;;;;;;5055246;28;20437;-78
2022/02/11 08:22:00;;;;;;;0.30;0.30;;;2.40;99.90;;;;;;5054932;28;20434;-78
2022/02/11 08:24:27;;;;;;;0.30;0.30;;;2.50;99.90;;;;;;5055164;28;20776;-78
2022/02/11 08:26:53;;;;;;;0.30;0.30;;;2.50;99.90;;;;;;5054781;28;20973;-78
2022/02/11 08:29:21;;;;;;;0.30;0.30;;;2.60;99.90;;;;;;5055097;28;20461;-78
2022/02/11 08:31:48;;;;;;;0.30;0.20;;;2.70;99.90;;;;;;5055046;28;20449;-78
2022/02/11 08:34:15;;;;;;;0.30;0.30;;;2.90;99.90;;;;;;5054926;28;20484;-78
2022/02/11 08:36:43;;;;;;;0.30;0.20;;;3.20;99.90;;;;;;5054572;28;20466;-78
2022/02/11 08:39:10;;;;;;;0.30;0.20;;;3.60;99.90;;;;;;5054933;28;20463;-78
2022/02/11 08:41:36;;;;;;;0.50;0.50;;;3.80;99.90;;;;;;5054841;28;20492;-78
2022/02/11 08:44:04;;;;;;;0.30;0.20;;;3.80;99.90;;;;;;5054789;28;20446;-78
2022/02/11 08:46:31;;;;;;;0.30;0.20;;;3.80;99.90;;;;;;5054419;28;20462;-78
2022/02/11 08:52:25;;;;;;;0.30;0.30;;;3.70;99.90;;;;;;5054827;28;20412;-78
2022/02/11 08:54:52;;;;;;;0.30;0.20;;;3.70;99.90;;;;;;5054277;28;20536;-78
2022/02/11 08:57:18;;;;;;;0.30;0.30;;;3.70;99.90;;;;;;5054491;28;20469;-78
2022/02/11 08:59:45;;;;;;;0.30;0.20;;;3.90;99.90;;;;;;5054498;28;20448;-78
2022/02/11 09:02:14;;;;;;;0.30;0.20;;;4.10;99.90;;;;;;5054466;28;20449;-78
2022/02/11 09:04:41;;;;;;;0.30;0.30;;;4.50;99.90;;;;;;5054069;28;20450;-78
2022/02/11 09:07:08;;;;;;;0.30;0.30;;;4.80;99.90;;;;;;5054239;28;20465;-78
2022/02/11 09:09:36;;;;;;;0.30;0.30;;;5.20;99.90;;;;;;5053937;28;20584;-79
2022/02/11 09:12:03;;;;;;;0.30;0.30;;;5.80;99.90;;;;;;5054274;28;20442;-80
2022/02/11 09:14:29;;;;;;;0.30;0.20;;;6.80;99.90;;;;;;5053843;28;20461;-81
2022/02/11 09:16:56;;;;;;;0.30;0.20;;;7.70;99.90;;;;;;5054086;28;20454;-79
2022/02/11 09:19:23;;;;;;;0.30;0.20;;;8.70;99.90;;;;;;5053907;28;20886;-79
2022/02/11 09:21:49;;;;;;;0.40;0.30;;;9.70;99.90;;;;;;5054135;28;20434;-79
2022/02/11 09:24:16;;;;;;;0.30;0.30;;;10.10;99.90;;;;;;5054062;28;20433;-79
2022/02/11 09:26:44;;;;;;;0.30;0.27;;;10.80;99.90;;;;;;5053842;28;20801;-79
2022/02/11 09:29:11;;;;;;;0.30;0.20;;;11.40;99.90;;;;;;5054314;28;20524;-79
2022/02/11 09:31:37;;;;;;;0.37;0.37;;;12.10;99.90;;;;;;5053484;28;20430;-79
2022/02/11 09:34:05;;;;;;;0.43;0.43;;;13.00;96.80;;;;;;5053888;28;20818;-79
2022/02/11 09:36:33;;;;;;;0.67;0.50;;;13.80;97.00;;;;;;5053836;28;20595;-78
2022/02/11 09:39:00;;;;;;;0.40;0.40;;;14.90;92.10;;;;;;5054665;28;20445;-78
2022/02/11 09:41:29;;;;;;;0.40;0.30;;;15.50;83.50;;;;;;5053808;28;20430;-78
2022/02/11 09:44:00;;;;;;;0.83;0.50;;;15.50;80.70;;;;;;5053411;28;20422;-78
2022/02/11 09:46:28;;;;;;;0.40;0.40;;;15.10;78.60;;;;;;5053311;28;20508;-78
2022/02/11 09:48:55;;;;;;;0.57;0.57;;;14.10;80.40;;;;;;5053730;28;20430;-78
2022/02/11 09:51:22;;;;;;;0.50;0.50;;;13.10;82.20;;;;;;5053580;28;20511;-78
2022/02/11 09:53:49;;;;;;;0.40;0.30;;;11.80;82.10;;;;;;5053150;28;20976;-78
2022/02/11 09:56:16;;;;;;;0.50;0.40;;;11.00;90.10;;;;;;5053467;28;20468;-78
2022/02/11 09:58:43;;;;;;;0.30;0.30;;;10.80;90.60;;;;;;5053528;28;20430;-80
2022/02/11 10:01:11;;;;;;;1.17;0.70;;;10.70;90.60;;;;;;5053492;28;20430;-79
2022/02/11 10:03:38;;;;;;;0.40;0.30;;;11.00;91.80;;;;;;5053469;28;20500;-79
2022/02/11 10:06:07;;;;;;;0.53;0.40;;;11.70;91.30;;;;;;5052977;28;20454;-79
2022/02/11 10:08:37;;;;;;;0.50;0.50;;;12.30;91.70;;;;;;5053213;28;20473;-79
2022/02/11 10:11:06;;;;;;;2.97;0.60;;;12.30;88.70;;;;;;5053392;28;20438;-79
2022/02/11 10:13:35;;;;;;;1.13;0.30;;;12.10;87.70;;;;;;5052949;28;20441;-79
2022/02/11 10:16:08;;;;;;;0.40;0.30;;;12.20;87.20;;;;;;5053237;28;20441;-79
2022/02/11 10:18:38;;;;;;;0.40;0.30;;;12.60;85.30;;;;;;5053276;28;20474;-79
2022/02/11 10:21:07;;;;;;;0.40;0.40;;;12.80;85.70;;;;;;5053292;28;20485;-79
2022/02/11 10:23:37;;;;;;;0.30;0.30;;;13.70;81.80;;;;;;5053239;28;20430;-79
2022/02/11 10:26:07;;;;;;;0.50;0.40;;;14.50;81.80;;;;;;5053172;28;20458;-79
2022/02/11 10:28:37;;;;;;;0.30;0.20;;;14.30;78.70;;;;;;5053903;28;20929;-79
2022/02/11 10:31:13;;;;;;;0.40;0.20;;;13.40;78.50;;;;;;5053136;28;20438;-79
2022/02/11 10:34:02;;;;;;;0.50;0.33;;;12.60;79.80;;;;;;5052759;28;20920;-80
2022/02/11 10:36:31;;;;;;;0.37;0.30;;;11.90;84.50;;;;;;5053041;28;20477;-80
2022/02/11 10:39:06;;;;;;;1.93;0.40;;;11.50;85.90;;;;;;5052782;28;20940;-80
2022/02/11 10:41:36;;;;;;;0.50;0.33;;;10.70;88.50;;;;;;5053105;28;20772;-80
2022/02/11 10:44:07;;;;;;;0.40;0.30;;;10.10;90.00;;;;;;5053908;28;20431;-79
2022/02/11 10:46:39;;;;;;;0.30;0.30;;;9.60;91.80;;;;;;5056993;28;20509;-79
2022/02/11 10:49:08;;;;;;;0.30;0.30;;;9.70;92.60;;;;;;5057022;28;20791;-79
2022/02/11 10:51:40;;;;;;;0.30;0.30;;;10.20;91.80;;;;;;5056668;28;20882;-79
2022/02/11 10:54:22;;;;;;;2.50;0.47;;;10.20;91.20;;;;;;5056881;28;20523;-79
2022/02/11 10:56:51;;;;;;;0.47;0.30;;;10.10;91.60;;;;;;5057333;28;20972;-79
2022/02/11 10:59:25;;;;;;;0.40;0.30;;;10.00;91.30;;;;;;5056542;28;20939;-79
2022/02/11 11:01:52;;;;;;;0.40;0.30;;;9.70;91.90;;;;;;5056807;28;20438;-79
2022/02/11 11:04:20;;;;;;;0.30;0.30;;;9.40;91.60;;;;;;5056573;28;20418;-79
2022/02/11 11:06:48;;;;;;;0.30;0.23;;;9.10;93.10;;;;;;5056700;28;20472;-81
2022/02/11 11:09:16;;;;;;;0.40;0.30;;;8.90;93.70;;;;;;5056909;28;20531;-84
2022/02/11 11:11:44;;;;;;;0.30;0.30;;;8.80;93.90;;;;;;5056515;28;20465;-80
2022/02/11 11:14:13;;;;;;;0.77;0.37;;;8.50;94.60;;;;;;5056472;28;20461;-80
2022/02/11 11:16:41;;;;;;;0.37;0.30;;;8.20;93.60;;;;;;5056510;28;20497;-79
2022/02/11 11:19:09;;;;;;;0.30;0.30;;;8.10;95.20;;;;;;5056536;28;20471;-79
2022/02/11 11:21:39;;;;;;;0.30;0.30;;;8.00;94.80;;;;;;5056122;28;20430;-79
2022/02/11 11:24:07;;;;;;;0.30;0.30;;;7.90;94.90;;;;;;5056418;28;20465;-79
2022/02/11 11:26:41;;;;;;;0.30;0.20;;;7.70;96.10;;;;;;5056250;28;20477;-79
2022/02/11 11:29:10;;;;;;;0.30;0.20;;;7.60;96.80;;;;;;5056297;28;20437;-79
2022/02/11 11:31:37;;;;;;;0.30;0.30;;;7.50;96.10;;;;;;5056293;28;20430;-79
2022/02/11 11:34:27;;;;;;;0.30;0.30;;;7.40;95.60;;;;;;5055862;28;20979;-79
2022/02/11 11:36:58;;;;;;;0.40;0.30;;;7.20;96.50;;;;;;5055810;28;20842;-79
2022/02/11 11:39:25;;;;;;;0.30;0.30;;;7.00;97.80;;;;;;5056131;28;20517;-79
2022/02/11 11:42:07;;;;;;;0.30;0.30;;;7.10;97.90;;;;;;5056074;28;20442;-79
2022/02/11 11:44:45;;;;;;;0.30;0.30;;;7.10;99.40;;;;;;5055742;28;20893;-79
2022/02/11 11:47:16;;;;;;;0.30;0.30;;;7.20;99.00;;;;;;5055568;28;20992;-79
2022/02/11 11:49:49;;;;;;;0.30;0.20;;;7.20;98.70;;;;;;5055957;28;20438;-79
2022/02/11 11:52:17;;;;;;;0.30;0.30;;;7.20;98.80;;;;;;5055568;28;20435;-79
2022/02/11 11:54:44;;;;;;;0.30;0.30;;;7.10;98.50;;;;;;5055302;28;20477;-79
2022/02/11 11:57:14;;;;;;;0.30;0.20;;;7.20;99.50;;;;;;5055357;28;21012;-80
2022/02/11 11:59:45;;;;;;;0.30;0.20;;;7.10;99.90;;;;;;5055703;28;20492;-80
2022/02/11 12:02:14;;;;;;;0.30;0.30;;;7.10;99.90;;;;;;5055708;28;20509;-80
2022/02/11 12:04:54;;;;;;;0.30;0.20;;;7.10;99.90;;;;;;5055558;28;20446;-80
2022/02/11 12:07:24;;;;;;;0.70;0.40;;;7.20;99.90;;;;;;5055475;28;20516;-80
2022/02/11 12:09:53;;;;;;;0.30;0.30;;;7.10;99.90;;;;;;5054887;28;20512;-79
2022/02/11 12:12:21;;;;;;;0.30;0.30;;;7.10;99.90;;;;;;5055120;28;20953;-79
2022/02/11 12:14:50;;;;;;;0.40;0.30;;;7.20;99.90;;;;;;5055377;28;20469;-79
2022/02/11 12:17:18;;;;;;;0.70;0.37;;;7.10;98.50;;;;;;5055525;28;20512;-80
2022/02/11 12:19:46;;;;;;;0.30;0.20;;;6.90;98.40;;;;;;5055395;28;20484;-80
2022/02/11 12:22:14;;;;;;;0.30;0.20;;;6.80;97.80;;;;;;5055305;28;20442;-80
2022/02/11 12:27:33;;;;;;;0.30;0.20;;;6.50;98.10;;;;;;5055046;28;20577;-80
2022/02/11 12:30:01;;;;;;;0.50;0.40;;;6.40;99.10;;;;;;5055165;28;20442;-80
2022/02/11 12:32:32;;;;;;;0.40;0.30;;;6.20;98.40;;;;;;5055145;28;20433;-80
2022/02/11 12:35:00;;;;;;;0.30;0.20;;;6.20;99.50;;;;;;5054823;28;20461;-79
2022/02/11 12:37:29;;;;;;;0.30;0.30;;;6.20;99.90;;;;;;5054922;28;20485;-79
2022/02/11 12:40:10;;;;;;;0.40;0.30;;;6.30;99.90;;;;;;5054943;28;20445;-79
2022/02/11 12:42:38;;;;;;;0.30;0.20;;;6.30;99.90;;;;;;5054660;28;20952;-79
2022/02/11 12:45:07;;;;;;;0.30;0.30;;;6.30;99.90;;;;;;5054855;28;20430;-79
2022/02/11 12:47:35;;;;;;;0.30;0.30;;;6.30;99.90;;;;;;5054805;28;20469;-80
2022/02/11 12:50:03;;;;;;;0.30;0.30;;;6.50;99.90;;;;;;5054514;28;20414;-80
2022/02/11 12:52:35;;;;;;;0.30;0.30;;;6.60;99.90;;;;;;5054386;28;20907;-80
2022/02/11 12:55:10;;;;;;;0.40;0.33;;;6.80;99.90;;;;;;5054729;28;20470;-80
2022/02/11 12:57:38;;;;;;;0.30;0.20;;;6.90;99.90;;;;;;5054498;28;20476;-80
2022/02/11 13:00:07;;;;;;;0.30;0.30;;;7.10;99.40;;;;;;5054123;28;20933;-79
2022/02/11 13:02:35;;;;;;;0.30;0.30;;;7.20;97.00;;;;;;5054462;28;20452;-84
2022/02/11 13:05:08;;;;;;;0.40;0.30;;;7.20;98.00;;;;;;5054895;28;20444;-80
2022/02/11 13:07:37;;;;;;;0.30;0.30;;;7.20;97.70;;;;;;5053248;28;20477;-80
2022/02/11 13:10:05;;;;;;;0.30;0.20;;;7.20;97.80;;;;;;5053881;28;20480;-80
2022/02/11 13:12:42;;;;;;;0.30;0.20;;;7.10;97.60;;;;;;5054051;28;20411;-80
2022/02/11 13:15:11;;;;;;;0.30;0.20;;;7.10;98.70;;;;;;5054168;28;20457;-80
2022/02/11 13:17:38;;;;;;;0.30;0.30;;;7.00;98.90;;;;;;5053708;28;20836;-80
2022/02/11 13:20:08;;;;;;;0.30;0.30;;;6.90;99.50;;;;;;5054061;28;20430;-80
2022/02/11 13:22:35;;;;;;;0.30;0.30;;;6.90;99.60;;;;;;5054291;28;20437;-80
2022/02/11 13:25:02;;;;;;;0.30;0.20;;;6.90;99.90;;;;;;5054059;28;20434;-80
2022/02/11 13:27:44;;;;;;;0.30;0.20;;;6.80;99.90;;;;;;5053853;28;20527;-80
2022/02/11 13:30:12;;;;;;;0.30;0.30;;;6.70;99.90;;;;;;5054000;28;20434;-80
2022/02/11 13:32:40;;;;;;;0.30;0.20;;;6.70;99.90;;;;;;5053988;28;20426;-80
2022/02/11 13:35:09;;;;;;;0.30;0.20;;;6.70;99.60;;;;;;5053861;28;20502;-80
2022/02/11 13:37:41;;;;;;;0.30;0.30;;;6.70;99.90;;;;;;5053740;28;20469;-80
2022/02/11 13:40:16;;;;;;;0.77;0.30;;;6.60;99.00;;;;;;5053880;28;20411;-80
2022/02/11 13:42:59;;;;;;;0.40;0.30;;;6.60;99.10;;;;;;5053541;28;20407;-80
2022/02/11 13:45:26;;;;;;;0.30;0.30;;;6.60;99.00;;;;;;5053698;28;20446;-80
2022/02/11 13:48:35;;;;;;;0.30;0.20;;;6.60;98.70;;;;;;5126232;22;20496;-79
2022/02/11 13:53:01;;;;;;;0.30;0.20;;;6.50;99.30;;;;;;5068593;28;20465;-80
2022/02/11 13:55:06;;;;;;;0.30;0.20;;;6.50;98.80;;;;;;5072948;28;20449;-80
2022/02/11 13:57:39;;;;;;;0.40;0.33;;;6.60;99.30;;;;;;5073272;28;20453;-80
2022/02/11 14:04:21;;;;;;;0.30;0.27;;;6.60;97.70;;;;;;5010344;28;20455;-80
2022/02/11 14:07:26;;;;;;;0.30;0.30;;;6.70;97.80;;;;;;5044038;28;20858;-80
2022/02/11 14:13:38;;;;;;;0.30;0.20;;;6.60;96.80;;;;;;5066881;28;20519;-80
2022/02/11 14:17:02;;;;;;;0.30;0.30;;;6.60;96.90;;;;;;5072666;28;20555;-80
2022/02/11 14:20:24;;;;;;;0.30;0.30;;;6.50;98.30;;;;;;5072582;28;20452;-80
2022/02/11 14:26:43;;;;;;;0.30;0.30;;;6.40;97.30;;;;;;5072765;28;20563;-80
2022/02/11 14:32:56;;;;;;;0.33;0.30;;;6.30;98.20;;;;;;5070878;28;20471;-80
2022/02/11 14:42:08;;;;;;;0.30;0.20;;;6.50;99.50;;;;;;5086493;28;20436;-80
2022/02/11 14:47:35;;;;;;;0.30;0.30;;;6.10;99.20;;;;;;5138704;22;20499;-79
2022/02/11 14:50:02;;;;;;;0.30;0.20;;;6.10;99.60;;;;;;5113388;28;20553;-79
2022/02/11 14:52:30;;;;;;;0.30;0.20;;;6.00;98.90;;;;;;5113494;28;20423;-79
2022/02/11 14:54:58;;;;;;;0.30;0.30;;;5.90;98.90;;;;;;5113480;28;20431;-79
2022/02/11 14:57:24;;;;;;;0.30;0.30;;;5.80;99.00;;;;;;5113159;28;20973;-79
2022/02/11 14:59:51;;;;;;;0.63;0.63;;;5.60;98.70;;;;;;5114228;28;20595;-79
2022/02/11 15:02:19;;;;;;;0.40;0.40;;;5.50;98.00;;;;;;5113187;28;20427;-80
2022/02/11 15:04:47;;;;;;;0.30;0.20;;;5.40;99.20;;;;;;5113488;28;20561;-80
2022/02/11 15:07:14;;;;;;;0.30;0.20;;;5.30;98.70;;;;;;5113216;28;20450;-80
2022/02/11 15:09:42;;;;;;;0.30;0.20;;;5.20;99.60;;;;;;5113466;28;20432;-79
2022/02/11 15:12:10;;;;;;;0.30;0.30;;;5.10;99.60;;;;;;5113064;28;20928;-80
2022/02/11 15:14:37;;;;;;;0.30;0.30;;;5.20;99.80;;;;;;5113343;28;20442;-79
2022/02/11 15:17:04;;;;;;;0.30;0.30;;;5.20;99.90;;;;;;5113237;28;20487;-80
2022/02/11 15:19:30;;;;;;;0.40;0.40;;;5.20;99.90;;;;;;5113319;28;20423;-80
2022/02/11 15:21:57;;;;;;;0.30;0.30;;;5.30;99.90;;;;;;5112979;28;20926;-80
2022/02/11 15:24:25;;;;;;;0.30;0.20;;;5.50;99.90;;;;;;5113276;28;20431;-80
2022/02/11 15:26:54;;;;;;;0.40;0.40;;;5.60;99.90;;;;;;5113155;28;20471;-80
2022/02/11 15:29:21;;;;;;;0.53;0.53;;;5.70;99.90;;;;;;5113743;28;20439;-80
2022/02/11 15:31:48;;;;;;;0.30;0.30;;;5.70;99.90;;;;;;5116695;28;20432;-81
2022/02/11 15:34:15;;;;;;;0.30;0.30;;;5.80;99.90;;;;;;5116904;28;20431;-81
2022/02/11 15:36:41;;;;;;;0.30;0.30;;;6.00;97.50;;;;;;5116649;28;20487;-81
2022/02/11 15:39:08;;;;;;;0.30;0.20;;;5.90;97.60;;;;;;5116831;28;20408;-81
2022/02/11 15:41:35;;;;;;;0.30;0.20;;;5.90;98.30;;;;;;5116799;28;20431;-81
2022/02/11 15:44:03;;;;;;;0.30;0.20;;;5.80;98.50;;;;;;5116752;28;20431;-81
2022/02/11 15:46:29;;;;;;;0.50;0.40;;;5.80;98.50;;;;;;5116166;28;20455;-80
2022/02/11 15:48:56;;;;;;;0.30;0.27;;;5.80;97.90;;;;;;5116655;28;20518;-81
2022/02/11 15:51:23;;;;;;;0.30;0.30;;;5.80;97.90;;;;;;5116476;28;20411;-81
2022/02/11 15:53:49;;;;;;;0.30;0.20;;;5.80;98.30;;;;;;5116543;28;20431;-81
2022/02/11 15:56:16;;;;;;;0.40;0.40;;;5.80;97.70;;;;;;5116814;28;20483;-81
2022/02/11 15:58:43;;;;;;;0.67;0.40;;;5.70;98.30;;;;;;5116472;28;20431;-81
2022/02/11 16:01:11;;;;;;;0.40;0.30;;;5.60;98.70;;;;;;5116015;28;20906;-81
2022/02/11 16:03:38;;;;;;;0.30;0.30;;;5.50;99.10;;;;;;5116027;28;20881;-81
2022/02/11 16:06:05;;;;;;;0.30;0.30;;;5.50;99.30;;;;;;5116238;28;20419;-81
2022/02/11 16:08:32;;;;;;;0.30;0.30;;;5.50;99.90;;;;;;5116190;28;20474;-81
2022/02/11 16:10:59;;;;;;;0.30;0.20;;;5.40;99.80;;;;;;5115927;28;20871;-81
2022/02/11 16:13:26;;;;;;;0.30;0.30;;;5.40;99.50;;;;;;5116187;28;20427;-81
2022/02/11 16:15:52;;;;;;;0.30;0.30;;;5.30;99.90;;;;;;5115650;28;20471;-81
2022/02/11 16:18:23;;;;;;;0.30;0.30;;;5.30;99.90;;;;;;5116028;28;20435;-81
2022/02/11 16:20:50;;;;;;;0.50;0.30;;;5.20;99.90;;;;;;5115669;28;20431;-81
2022/02/11 16:23:19;;;;;;;0.30;0.30;;;5.20;99.90;;;;;;5115869;28;20438;-81
2022/02/11 16:25:47;;;;;;;0.30;0.30;;;5.20;99.90;;;;;;5115687;28;20822;-81
2022/02/11 16:28:17;;;;;;;0.30;0.30;;;5.20;99.90;;;;;;5115750;28;20536;-80
2022/02/11 16:30:45;;;;;;;0.30;0.27;;;5.10;99.90;;;;;;5115433;28;20922;-81
2022/02/11 16:33:12;;;;;;;0.30;0.30;;;5.10;99.90;;;;;;5115521;28;20423;-81
2022/02/11 16:35:42;;;;;;;0.30;0.20;;;5.10;99.90;;;;;;5116312;28;20524;-81
2022/02/11 16:38:12;;;;;;;0.40;0.30;;;5.10;99.90;;;;;;5115698;28;20471;-80
2022/02/11 16:40:40;;;;;;;0.40;0.30;;;5.10;99.90;;;;;;5115656;28;20451;-81
2022/02/11 16:43:07;;;;;;;0.60;0.33;;;5.00;99.90;;;;;;5115372;28;20427;-80
2022/02/11 16:45:35;;;;;;;0.30;0.30;;;5.00;99.90;;;;;;5115271;28;20910;-81
2022/02/11 16:48:03;;;;;;;0.30;0.30;;;5.00;99.90;;;;;;5115025;28;20493;-81
2022/02/11 16:50:30;;;;;;;0.30;0.20;;;5.00;99.90;;;;;;5115421;28;20443;-81
2022/02/11 16:52:59;;;;;;;0.40;0.40;;;5.00;99.90;;;;;;5115153;28;20422;-81
2022/02/11 16:55:26;;;;;;;0.37;0.37;;;4.90;99.90;;;;;;5115066;28;20936;-81
2022/02/11 16:57:52;;;;;;;0.30;0.20;;;4.90;99.90;;;;;;5115146;28;20483;-81
2022/02/11 17:00:19;;;;;;;0.30;0.20;;;4.90;99.90;;;;;;5115213;28;20454;-81
2022/02/11 17:02:46;;;;;;;0.30;0.30;;;4.90;99.90;;;;;;5115004;28;20789;-81
2022/02/11 17:05:13;;;;;;;0.30;0.30;;;4.90;99.90;;;;;;5115115;28;20431;-81
2022/02/11 17:07:40;;;;;;;0.40;0.40;;;4.90;99.90;;;;;;5114929;28;20455;-81
2022/02/11 17:10:09;;;;;;;0.40;0.30;;;4.90;99.90;;;;;;5115037;28;20438;-81
2022/02/11 17:12:37;;;;;;;0.30;0.20;;;4.90;99.90;;;;;;5114980;28;20431;-81
2022/02/11 17:15:04;;;;;;;0.83;0.83;;;4.90;99.90;;;;;;5114698;28;20456;-81
2022/02/11 17:17:31;;;;;;;0.43;0.43;;;4.80;99.90;;;;;;5114699;28;20495;-80
2022/02/11 17:19:58;;;;;;;0.30;0.20;;;4.80;99.90;;;;;;5114523;28;20434;-79
2022/02/11 17:22:25;;;;;;;0.30;0.20;;;4.80;99.90;;;;;;5114552;28;20921;-82
2022/02/11 17:24:52;;;;;;;0.30;0.30;;;4.70;99.90;;;;;;5114566;28;20420;-79
2022/02/11 17:27:20;;;;;;;0.30;0.30;;;4.70;99.90;;;;;;5114633;28;20470;-79
2022/02/11 17:29:47;;;;;;;0.40;0.40;;;4.70;99.90;;;;;;5114640;28;20434;-79
2022/02/11 17:32:14;;;;;;;0.30;0.30;;;4.70;99.90;;;;;;5114486;28;20451;-79
2022/02/11 17:34:41;;;;;;;0.40;0.40;;;4.60;99.90;;;;;;5114515;28;20454;-79
2022/02/11 17:37:09;;;;;;;0.50;0.50;;;4.60;99.90;;;;;;5114394;28;20497;-79